sensor_id;sensor_type;location;lat;lon;timestamp;pressure;altitude;pressure_sealevel;temperature;humidity
13050;BME280;6591;51.446;5.404;2022-07-05T00:00:55;101820.69;;;20.57;40.73
13050;BME280;6591;51.446;5.404;2022-07-05T00:03:23;101818.66;;;20.48;40.95
13050;BME280;6591;51.446;5.404;2022-07-05T00:05:50;101818.34;;;20.40;41.12
13050;BME280;6591;51.446;5.404;2022-07-05T00:08:18;101814.44;;;20.31;41.51
13050;BME280;6591;51.446;5.404;2022-07-05T00:10:45;101816.81;;;20.23;41.79
13050;BME280;6591;51.446;5.404;2022-07-05T00:13:11;101814.63;;;20.15;41.86
13050;BME280;6591;51.446;5.404;2022-07-05T00:15:38;101817.88;;;20.08;41.87
13050;BME280;6591;51.446;5.404;2022-07-05T00:18:07;101812.91;;;20.02;42.04
13050;BME280;6591;51.446;5.404;2022-07-05T00:20:34;101809.75;;;19.95;41.96
13050;BME280;6591;51.446;5.404;2022-07-05T00:23:01;101812.03;;;19.88;42.07
13050;BME280;6591;51.446;5.404;2022-07-05T00:25:29;101815.25;;;19.81;42.55
13050;BME280;6591;51.446;5.404;2022-07-05T00:27:56;101807.47;;;19.76;42.54
13050;BME280;6591;51.446;5.404;2022-07-05T00:30:24;101810.69;;;19.69;42.60
13050;BME280;6591;51.446;5.404;2022-07-05T00:32:52;101808.53;;;19.61;42.73
13050;BME280;6591;51.446;5.404;2022-07-05T00:35:19;101809.78;;;19.56;42.79
13050;BME280;6591;51.446;5.404;2022-07-05T00:37:46;101815.59;;;19.50;42.90
13050;BME280;6591;51.446;5.404;2022-07-05T00:40:13;101807.81;;;19.45;43.00
13050;BME280;6591;51.446;5.404;2022-07-05T00:42:40;101804.63;;;19.38;43.58
13050;BME280;6591;51.446;5.404;2022-07-05T00:45:08;101811.97;;;19.36;43.44
13050;BME280;6591;51.446;5.404;2022-07-05T00:47:35;101807.72;;;19.32;43.58
13050;BME280;6591;51.446;5.404;2022-07-05T00:50:03;101807.94;;;19.29;43.14
13050;BME280;6591;51.446;5.404;2022-07-05T00:52:31;101806.44;;;19.25;43.74
13050;BME280;6591;51.446;5.404;2022-07-05T00:54:59;101802.97;;;19.23;44.09
13050;BME280;6591;51.446;5.404;2022-07-05T00:57:27;101804.13;;;19.19;44.10
13050;BME280;6591;51.446;5.404;2022-07-05T00:59:55;101800.75;;;19.16;44.26
13050;BME280;6591;51.446;5.404;2022-07-05T01:02:22;101814.34;;;19.14;43.96
13050;BME280;6591;51.446;5.404;2022-07-05T01:04:51;101810.97;;;19.11;44.44
13050;BME280;6591;51.446;5.404;2022-07-05T01:07:22;101808.56;;;19.06;44.36
13050;BME280;6591;51.446;5.404;2022-07-05T01:09:50;101813.09;;;19.05;44.20
13050;BME280;6591;51.446;5.404;2022-07-05T01:12:18;101812.53;;;19.00;44.47
13050;BME280;6591;51.446;5.404;2022-07-05T01:14:46;101803.88;;;18.95;44.19
13050;BME280;6591;51.446;5.404;2022-07-05T01:17:15;101806.88;;;18.91;44.62
13050;BME280;6591;51.446;5.404;2022-07-05T01:19:42;101808.13;;;18.85;44.40
13050;BME280;6591;51.446;5.404;2022-07-05T01:22:18;101803.28;;;18.78;44.61
13050;BME280;6591;51.446;5.404;2022-07-05T01:24:48;101802.50;;;18.76;44.97
13050;BME280;6591;51.446;5.404;2022-07-05T01:27:15;101808.94;;;18.73;44.83
13050;BME280;6591;51.446;5.404;2022-07-05T01:29:42;101801.16;;;18.69;45.01
13050;BME280;6591;51.446;5.404;2022-07-05T01:32:10;101811.91;;;18.69;45.29
13050;BME280;6591;51.446;5.404;2022-07-05T01:34:39;101811.91;;;18.69;45.43
13050;BME280;6591;51.446;5.404;2022-07-05T01:37:08;101810.22;;;18.68;45.51
13050;BME280;6591;51.446;5.404;2022-07-05T01:39:36;101814.59;;;18.69;45.77
13050;BME280;6591;51.446;5.404;2022-07-05T01:42:03;101806.53;;;18.69;45.73
13050;BME280;6591;51.446;5.404;2022-07-05T01:44:31;101813.75;;;18.68;45.42
13050;BME280;6591;51.446;5.404;2022-07-05T01:47:07;101808.66;;;18.63;45.74
13050;BME280;6591;51.446;5.404;2022-07-05T01:49:41;101805.22;;;18.61;45.63
13050;BME280;6591;51.446;5.404;2022-07-05T01:52:12;101810.69;;;18.60;45.94
13050;BME280;6591;51.446;5.404;2022-07-05T01:54:41;101809.06;;;18.57;45.46
13050;BME280;6591;51.446;5.404;2022-07-05T01:57:09;101812.84;;;18.53;45.74
13050;BME280;6591;51.446;5.404;2022-07-05T01:59:37;101806.81;;;18.50;45.83
13050;BME280;6591;51.446;5.404;2022-07-05T02:02:07;101811.53;;;18.46;45.78
13050;BME280;6591;51.446;5.404;2022-07-05T02:04:35;101811.69;;;18.43;46.16
13050;BME280;6591;51.446;5.404;2022-07-05T02:07:07;101807.38;;;18.41;45.73
13050;BME280;6591;51.446;5.404;2022-07-05T02:09:37;101803.06;;;18.38;46.26
13050;BME280;6591;51.446;5.404;2022-07-05T02:12:05;101808.63;;;18.35;46.26
13050;BME280;6591;51.446;5.404;2022-07-05T02:14:33;101800.66;;;18.34;46.31
13050;BME280;6591;51.446;5.404;2022-07-05T02:17:03;101801.72;;;18.31;46.38
13050;BME280;6591;51.446;5.404;2022-07-05T02:19:31;101798.47;;;18.26;46.50
13050;BME280;6591;51.446;5.404;2022-07-05T02:22:01;101808.72;;;18.19;46.46
13050;BME280;6591;51.446;5.404;2022-07-05T02:24:28;101803.63;;;18.15;46.44
13050;BME280;6591;51.446;5.404;2022-07-05T02:27:06;101805.63;;;18.11;46.38
13050;BME280;6591;51.446;5.404;2022-07-05T02:29:33;101796.88;;;18.08;46.63
13050;BME280;6591;51.446;5.404;2022-07-05T02:32:02;101802.47;;;18.05;46.46
13050;BME280;6591;51.446;5.404;2022-07-05T02:34:30;101807.25;;;18.00;46.34
13050;BME280;6591;51.446;5.404;2022-07-05T02:36:58;101806.47;;;17.98;46.74
13050;BME280;6591;51.446;5.404;2022-07-05T02:39:28;101806.75;;;17.93;47.09
13050;BME280;6591;51.446;5.404;2022-07-05T02:41:59;101813.75;;;17.96;47.20
13050;BME280;6591;51.446;5.404;2022-07-05T02:44:29;101818.19;;;17.97;47.15
13050;BME280;6591;51.446;5.404;2022-07-05T02:47:00;101811.94;;;17.96;47.18
13050;BME280;6591;51.446;5.404;2022-07-05T02:49:30;101807.44;;;17.97;47.19
13050;BME280;6591;51.446;5.404;2022-07-05T02:51:59;101806.69;;;17.95;47.12
13050;BME280;6591;51.446;5.404;2022-07-05T02:54:28;101807.78;;;17.91;47.21
13050;BME280;6591;51.446;5.404;2022-07-05T02:56:55;101819.69;;;17.87;47.52
13050;BME280;6591;51.446;5.404;2022-07-05T02:59:25;101819.09;;;17.82;46.98
13050;BME280;6591;51.446;5.404;2022-07-05T03:01:53;101822.06;;;17.77;47.24
13050;BME280;6591;51.446;5.404;2022-07-05T03:04:20;101819.66;;;17.72;47.42
13050;BME280;6591;51.446;5.404;2022-07-05T03:06:53;101815.44;;;17.68;47.31
13050;BME280;6591;51.446;5.404;2022-07-05T03:09:24;101805.91;;;17.63;47.33
13050;BME280;6591;51.446;5.404;2022-07-05T03:11:54;101816.91;;;17.58;47.10
13050;BME280;6591;51.446;5.404;2022-07-05T03:14:21;101810.94;;;17.53;47.54
13050;BME280;6591;51.446;5.404;2022-07-05T03:16:50;101815.50;;;17.51;47.36
13050;BME280;6591;51.446;5.404;2022-07-05T03:19:19;101819.34;;;17.47;47.46
13050;BME280;6591;51.446;5.404;2022-07-05T03:21:47;101827.41;;;17.47;47.70
13050;BME280;6591;51.446;5.404;2022-07-05T03:24:14;101815.69;;;17.48;47.83
13050;BME280;6591;51.446;5.404;2022-07-05T03:26:41;101819.34;;;17.47;47.95
13050;BME280;6591;51.446;5.404;2022-07-05T03:29:08;101822.91;;;17.48;48.03
13050;BME280;6591;51.446;5.404;2022-07-05T03:31:37;101819.22;;;17.49;48.07
13050;BME280;6591;51.446;5.404;2022-07-05T03:34:06;101824.53;;;17.50;48.20
13050;BME280;6591;51.446;5.404;2022-07-05T03:36:33;101837.78;;;17.53;48.13
13050;BME280;6591;51.446;5.404;2022-07-05T03:39:04;101840.28;;;17.56;48.91
13050;BME280;6591;51.446;5.404;2022-07-05T03:41:33;101835.63;;;17.60;48.53
13050;BME280;6591;51.446;5.404;2022-07-05T03:44:01;101839.00;;;17.63;48.83
13050;BME280;6591;51.446;5.404;2022-07-05T03:46:29;101833.44;;;17.66;48.92
13050;BME280;6591;51.446;5.404;2022-07-05T03:48:56;101833.09;;;17.72;48.77
13050;BME280;6591;51.446;5.404;2022-07-05T03:51:25;101831.06;;;17.76;48.64
13050;BME280;6591;51.446;5.404;2022-07-05T03:53:56;101842.34;;;17.83;48.89
13050;BME280;6591;51.446;5.404;2022-07-05T03:56:26;101845.59;;;17.88;48.76
13050;BME280;6591;51.446;5.404;2022-07-05T03:58:59;101848.09;;;17.91;49.04
13050;BME280;6591;51.446;5.404;2022-07-05T04:01:29;101848.69;;;17.96;49.02
13050;BME280;6591;51.446;5.404;2022-07-05T04:03:56;101849.19;;;18.02;48.95
13050;BME280;6591;51.446;5.404;2022-07-05T04:06:28;101836.53;;;18.04;49.13
13050;BME280;6591;51.446;5.404;2022-07-05T04:08:56;101844.31;;;18.09;48.80
13050;BME280;6591;51.446;5.404;2022-07-05T04:11:25;101861.03;;;18.14;48.88
13050;BME280;6591;51.446;5.404;2022-07-05T04:13:54;101859.03;;;18.17;49.09
13050;BME280;6591;51.446;5.404;2022-07-05T04:16:22;101854.13;;;18.24;49.25
13050;BME280;6591;51.446;5.404;2022-07-05T04:18:49;101861.84;;;18.30;49.31
13050;BME280;6591;51.446;5.404;2022-07-05T04:21:16;101868.66;;;18.36;49.17
13050;BME280;6591;51.446;5.404;2022-07-05T04:23:43;101852.31;;;18.39;49.45
13050;BME280;6591;51.446;5.404;2022-07-05T04:26:11;101860.69;;;18.48;49.40
13050;BME280;6591;51.446;5.404;2022-07-05T04:28:44;101855.88;;;18.53;49.19
13050;BME280;6591;51.446;5.404;2022-07-05T04:31:14;101860.84;;;18.61;49.28
13050;BME280;6591;51.446;5.404;2022-07-05T04:33:45;101867.56;;;18.68;49.54
13050;BME280;6591;51.446;5.404;2022-07-05T04:36:18;101862.78;;;18.73;49.21
13050;BME280;6591;51.446;5.404;2022-07-05T04:38:47;101870.34;;;18.81;49.24
13050;BME280;6591;51.446;5.404;2022-07-05T04:41:15;101872.94;;;18.82;49.02
13050;BME280;6591;51.446;5.404;2022-07-05T04:43:43;101870.75;;;18.89;49.16
13050;BME280;6591;51.446;5.404;2022-07-05T04:46:12;101876.69;;;18.94;48.86
13050;BME280;6591;51.446;5.404;2022-07-05T04:48:40;101864.66;;;18.99;49.17
13050;BME280;6591;51.446;5.404;2022-07-05T04:51:09;101861.56;;;19.05;49.20
13050;BME280;6591;51.446;5.404;2022-07-05T04:53:36;101865.59;;;19.13;49.42
13050;BME280;6591;51.446;5.404;2022-07-05T04:56:04;101868.69;;;19.21;49.22
13050;BME280;6591;51.446;5.404;2022-07-05T04:58:33;101868.94;;;19.30;49.54
13050;BME280;6591;51.446;5.404;2022-07-05T05:01:00;101862.94;;;19.39;49.30
13050;BME280;6591;51.446;5.404;2022-07-05T05:03:29;101864.09;;;19.50;49.70
13050;BME280;6591;51.446;5.404;2022-07-05T05:05:56;101857.22;;;19.58;49.51
13050;BME280;6591;51.446;5.404;2022-07-05T05:08:24;101864.56;;;19.69;49.63
13050;BME280;6591;51.446;5.404;2022-07-05T05:10:52;101862.03;;;19.80;49.56
13050;BME280;6591;51.446;5.404;2022-07-05T05:13:19;101866.59;;;19.92;49.92
13050;BME280;6591;51.446;5.404;2022-07-05T05:15:46;101868.47;;;20.04;49.74
13050;BME280;6591;51.446;5.404;2022-07-05T05:18:13;101864.81;;;20.18;50.01
13050;BME280;6591;51.446;5.404;2022-07-05T05:20:41;101863.88;;;20.32;49.93
13050;BME280;6591;51.446;5.404;2022-07-05T05:23:10;101870.16;;;20.45;50.25
13050;BME280;6591;51.446;5.404;2022-07-05T05:25:37;101874.66;;;20.57;49.98
13050;BME280;6591;51.446;5.404;2022-07-05T05:28:04;101878.16;;;20.71;50.02
13050;BME280;6591;51.446;5.404;2022-07-05T05:30:32;101871.84;;;20.84;49.96
13050;BME280;6591;51.446;5.404;2022-07-05T05:32:59;101869.03;;;20.98;49.94
13050;BME280;6591;51.446;5.404;2022-07-05T05:35:29;101875.16;;;21.12;50.03
13050;BME280;6591;51.446;5.404;2022-07-05T05:37:56;101881.41;;;21.26;49.98
13050;BME280;6591;51.446;5.404;2022-07-05T05:40:29;101873.91;;;21.42;49.87
13050;BME280;6591;51.446;5.404;2022-07-05T05:42:56;101888.97;;;21.57;50.00
13050;BME280;6591;51.446;5.404;2022-07-05T05:45:25;101885.00;;;21.74;49.65
13050;BME280;6591;51.446;5.404;2022-07-05T05:47:57;101879.41;;;21.88;49.71
13050;BME280;6591;51.446;5.404;2022-07-05T05:50:30;101886.28;;;22.05;49.29
13050;BME280;6591;51.446;5.404;2022-07-05T05:53:02;101889.78;;;22.18;49.62
13050;BME280;6591;51.446;5.404;2022-07-05T05:55:31;101897.69;;;22.32;49.22
13050;BME280;6591;51.446;5.404;2022-07-05T05:58:16;101900.63;;;22.40;48.89
13050;BME280;6591;51.446;5.404;2022-07-05T06:00:44;101903.16;;;22.54;48.95
13050;BME280;6591;51.446;5.404;2022-07-05T06:03:15;101892.94;;;22.69;48.59
13050;BME280;6591;51.446;5.404;2022-07-05T06:05:43;101895.31;;;22.85;48.85
13050;BME280;6591;51.446;5.404;2022-07-05T06:08:10;101901.25;;;23.01;48.79
13050;BME280;6591;51.446;5.404;2022-07-05T06:10:38;101905.41;;;23.16;48.69
13050;BME280;6591;51.446;5.404;2022-07-05T06:13:09;101901.56;;;23.30;48.43
13050;BME280;6591;51.446;5.404;2022-07-05T06:15:37;101904.91;;;23.44;48.37
13050;BME280;6591;51.446;5.404;2022-07-05T06:18:06;101907.47;;;23.57;48.10
13050;BME280;6591;51.446;5.404;2022-07-05T06:20:36;101910.91;;;23.70;47.74
13050;BME280;6591;51.446;5.404;2022-07-05T06:23:05;101910.72;;;23.83;47.37
13050;BME280;6591;51.446;5.404;2022-07-05T06:25:33;101905.84;;;23.97;47.33
13050;BME280;6591;51.446;5.404;2022-07-05T06:28:05;101905.78;;;24.08;46.96
13050;BME280;6591;51.446;5.404;2022-07-05T06:30:36;101902.66;;;24.24;47.50
13050;BME280;6591;51.446;5.404;2022-07-05T06:33:04;101905.78;;;24.40;46.79
13050;BME280;6591;51.446;5.404;2022-07-05T06:35:31;101915.06;;;24.59;46.67
13050;BME280;6591;51.446;5.404;2022-07-05T06:38:08;101909.00;;;24.76;46.74
13050;BME280;6591;51.446;5.404;2022-07-05T06:40:40;101911.56;;;24.98;46.25
13050;BME280;6591;51.446;5.404;2022-07-05T06:43:13;101916.81;;;25.20;46.03
13050;BME280;6591;51.446;5.404;2022-07-05T06:45:53;101915.31;;;25.47;45.52
13050;BME280;6591;51.446;5.404;2022-07-05T06:48:21;101920.41;;;25.70;45.46
13050;BME280;6591;51.446;5.404;2022-07-05T06:50:48;101921.31;;;25.90;44.70
13050;BME280;6591;51.446;5.404;2022-07-05T06:53:15;101919.56;;;26.08;44.51
13050;BME280;6591;51.446;5.404;2022-07-05T06:55:42;101922.16;;;26.20;44.04
13050;BME280;6591;51.446;5.404;2022-07-05T06:58:19;101924.03;;;26.29;43.40
13050;BME280;6591;51.446;5.404;2022-07-05T07:00:46;101924.47;;;26.34;43.34
13050;BME280;6591;51.446;5.404;2022-07-05T07:03:33;101927.63;;;26.39;43.54
13050;BME280;6591;51.446;5.404;2022-07-05T07:06:22;101917.44;;;26.41;43.07
13050;BME280;6591;51.446;5.404;2022-07-05T07:08:49;101918.59;;;26.48;43.45
13050;BME280;6591;51.446;5.404;2022-07-05T07:11:34;101919.66;;;26.65;43.77
13050;BME280;6591;51.446;5.404;2022-07-05T07:14:02;101926.09;;;26.92;44.00
13050;BME280;6591;51.446;5.404;2022-07-05T07:16:29;101926.22;;;27.28;43.62
13050;BME280;6591;51.446;5.404;2022-07-05T07:18:57;101920.56;;;27.66;43.63
13050;BME280;6591;51.446;5.404;2022-07-05T07:21:40;101934.03;;;28.13;43.27
13050;BME280;6591;51.446;5.404;2022-07-05T07:24:08;101930.47;;;28.56;42.47
13050;BME280;6591;51.446;5.404;2022-07-05T07:26:36;101936.38;;;28.95;41.63
13050;BME280;6591;51.446;5.404;2022-07-05T07:29:39;101930.97;;;29.37;41.63
13050;BME280;6591;51.446;5.404;2022-07-05T07:32:08;101933.97;;;29.68;40.83
13050;BME280;6591;51.446;5.404;2022-07-05T07:34:37;101941.28;;;29.93;40.27
13050;BME280;6591;51.446;5.404;2022-07-05T07:37:05;101935.97;;;30.16;40.06
13050;BME280;6591;51.446;5.404;2022-07-05T07:39:32;101944.75;;;30.36;39.54
13050;BME280;6591;51.446;5.404;2022-07-05T07:41:59;101940.97;;;30.53;39.44
13050;BME280;6591;51.446;5.404;2022-07-05T07:44:27;101950.22;;;30.68;39.41
13050;BME280;6591;51.446;5.404;2022-07-05T07:46:54;101946.78;;;30.82;38.85
13050;BME280;6591;51.446;5.404;2022-07-05T07:49:22;101943.66;;;30.93;38.40
13050;BME280;6591;51.446;5.404;2022-07-05T07:51:51;101935.94;;;31.05;38.09
13050;BME280;6591;51.446;5.404;2022-07-05T07:54:18;101942.06;;;31.15;37.96
13050;BME280;6591;51.446;5.404;2022-07-05T07:56:45;101942.91;;;31.24;38.09
13050;BME280;6591;51.446;5.404;2022-07-05T07:59:12;101942.53;;;31.27;37.62
13050;BME280;6591;51.446;5.404;2022-07-05T08:01:39;101939.47;;;31.30;38.07
13050;BME280;6591;51.446;5.404;2022-07-05T08:04:12;101937.88;;;31.35;37.73
13050;BME280;6591;51.446;5.404;2022-07-05T08:06:41;101945.41;;;31.41;37.07
13050;BME280;6591;51.446;5.404;2022-07-05T08:09:09;101944.03;;;31.45;37.20
13050;BME280;6591;51.446;5.404;2022-07-05T08:11:44;101950.50;;;31.52;37.11
13050;BME280;6591;51.446;5.404;2022-07-05T08:14:11;101947.25;;;31.57;36.90
13050;BME280;6591;51.446;5.404;2022-07-05T08:16:38;101950.50;;;31.61;36.91
13050;BME280;6591;51.446;5.404;2022-07-05T08:19:06;101956.66;;;31.63;36.53
13050;BME280;6591;51.446;5.404;2022-07-05T08:21:54;101950.31;;;31.62;36.71
13050;BME280;6591;51.446;5.404;2022-07-05T08:24:21;101947.00;;;31.67;36.30
13050;BME280;6591;51.446;5.404;2022-07-05T08:26:48;101945.94;;;31.76;36.89
13050;BME280;6591;51.446;5.404;2022-07-05T08:29:15;101942.97;;;31.85;36.33
13050;BME280;6591;51.446;5.404;2022-07-05T08:31:51;101953.53;;;31.96;36.18
13050;BME280;6591;51.446;5.404;2022-07-05T08:34:19;101950.56;;;32.06;35.79
13050;BME280;6591;51.446;5.404;2022-07-05T08:36:47;101945.88;;;32.15;35.72
13050;BME280;6591;51.446;5.404;2022-07-05T08:39:15;101940.97;;;32.25;36.02
13050;BME280;6591;51.446;5.404;2022-07-05T08:41:47;101940.91;;;32.33;35.12
13050;BME280;6591;51.446;5.404;2022-07-05T08:44:22;101940.84;;;32.41;35.48
13050;BME280;6591;51.446;5.404;2022-07-05T08:46:51;101944.00;;;32.53;35.49
13050;BME280;6591;51.446;5.404;2022-07-05T08:49:26;101937.06;;;32.65;34.95
13050;BME280;6591;51.446;5.404;2022-07-05T08:51:55;101938.09;;;32.78;34.65
13050;BME280;6591;51.446;5.404;2022-07-05T08:54:24;101941.81;;;32.86;34.65
13050;BME280;6591;51.446;5.404;2022-07-05T08:56:52;101942.00;;;32.84;34.39
13050;BME280;6591;51.446;5.404;2022-07-05T08:59:38;101940.56;;;32.73;33.78
13050;BME280;6591;51.446;5.404;2022-07-05T09:02:08;101937.59;;;32.60;34.06
13050;BME280;6591;51.446;5.404;2022-07-05T09:04:43;101943.53;;;32.49;33.02
13050;BME280;6591;51.446;5.404;2022-07-05T09:07:15;101940.97;;;32.48;33.51
13050;BME280;6591;51.446;5.404;2022-07-05T09:09:46;101943.16;;;32.52;33.60
13050;BME280;6591;51.446;5.404;2022-07-05T09:12:14;101935.31;;;32.64;32.87
13050;BME280;6591;51.446;5.404;2022-07-05T09:14:54;101941.53;;;32.81;33.58
13050;BME280;6591;51.446;5.404;2022-07-05T09:17:22;101947.78;;;33.04;32.72
13050;BME280;6591;51.446;5.404;2022-07-05T09:22:55;101949.50;;;33.63;32.32
13050;BME280;6591;51.446;5.404;2022-07-05T09:25:31;101948.47;;;34.00;31.63
13050;BME280;6591;51.446;5.404;2022-07-05T09:28:04;101947.28;;;34.31;30.93
13050;BME280;6591;51.446;5.404;2022-07-05T09:30:38;101949.59;;;34.49;30.44
13050;BME280;6591;51.446;5.404;2022-07-05T09:33:15;101950.03;;;34.52;30.30
13050;BME280;6591;51.446;5.404;2022-07-05T09:35:52;101939.31;;;34.64;30.54
13050;BME280;6591;51.446;5.404;2022-07-05T09:38:29;101944.19;;;34.90;30.13
13050;BME280;6591;51.446;5.404;2022-07-05T09:40:59;101942.25;;;35.18;29.79
13050;BME280;6591;51.446;5.404;2022-07-05T09:43:29;101932.84;;;35.47;29.76
13050;BME280;6591;51.446;5.404;2022-07-05T09:46:03;101927.44;;;35.73;28.96
13050;BME280;6591;51.446;5.404;2022-07-05T09:48:32;101930.88;;;35.95;28.04
13050;BME280;6591;51.446;5.404;2022-07-05T09:51:12;101929.81;;;36.02;28.25
13050;BME280;6591;51.446;5.404;2022-07-05T09:54:01;101929.63;;;36.10;28.07
13050;BME280;6591;51.446;5.404;2022-07-05T09:56:48;101927.91;;;36.03;26.90
13050;BME280;6591;51.446;5.404;2022-07-05T09:59:18;101923.84;;;35.92;26.66
13050;BME280;6591;51.446;5.404;2022-07-05T10:01:48;101924.06;;;35.84;26.78
13050;BME280;6591;51.446;5.404;2022-07-05T10:04:15;101921.28;;;35.84;26.92
13050;BME280;6591;51.446;5.404;2022-07-05T10:06:43;101914.06;;;35.96;26.75
13050;BME280;6591;51.446;5.404;2022-07-05T10:09:11;101913.69;;;36.19;27.08
13050;BME280;6591;51.446;5.404;2022-07-05T10:11:44;101918.59;;;36.50;26.35
13050;BME280;6591;51.446;5.404;2022-07-05T10:14:20;101920.97;;;36.66;26.02
13050;BME280;6591;51.446;5.404;2022-07-05T10:17:01;101920.72;;;36.61;25.52
13050;BME280;6591;51.446;5.404;2022-07-05T10:19:38;101926.06;;;36.43;25.55
13050;BME280;6591;51.446;5.404;2022-07-05T10:22:11;101925.41;;;36.15;25.17
13050;BME280;6591;51.446;5.404;2022-07-05T10:24:45;101919.56;;;35.77;25.52
13050;BME280;6591;51.446;5.404;2022-07-05T10:27:14;101929.38;;;35.32;25.57
13050;BME280;6591;51.446;5.404;2022-07-05T10:29:43;101927.56;;;34.83;25.21
13050;BME280;6591;51.446;5.404;2022-07-05T10:32:11;101936.50;;;34.36;25.68
13050;BME280;6591;51.446;5.404;2022-07-05T10:34:41;101939.66;;;33.90;25.89
13050;BME280;6591;51.446;5.404;2022-07-05T10:37:33;101936.81;;;33.33;26.44
13050;BME280;6591;51.446;5.404;2022-07-05T10:40:05;101944.47;;;32.94;27.12
13050;BME280;6591;51.446;5.404;2022-07-05T10:42:45;101943.81;;;32.54;27.50
13050;BME280;6591;51.446;5.404;2022-07-05T10:48:16;101934.00;;;31.91;28.15
13050;BME280;6591;51.446;5.404;2022-07-05T10:51:13;101938.59;;;31.68;27.82
13050;BME280;6591;51.446;5.404;2022-07-05T10:58:40;101924.44;;;31.48;28.82
13050;BME280;6591;51.446;5.404;2022-07-05T11:03:49;101929.59;;;32.05;28.78
13050;BME280;6591;51.446;5.404;2022-07-05T11:06:27;101945.47;;;32.41;28.93
13050;BME280;6591;51.446;5.404;2022-07-05T11:12:01;101933.91;;;32.83;27.53
13050;BME280;6591;51.446;5.404;2022-07-05T11:14:48;101925.88;;;33.10;27.41
13050;BME280;6591;51.446;5.404;2022-07-05T11:17:21;101937.19;;;33.30;27.03
13050;BME280;6591;51.446;5.404;2022-07-05T11:20:27;101940.59;;;33.47;26.92
13050;BME280;6591;51.446;5.404;2022-07-05T11:23:10;101936.13;;;33.46;26.23
13050;BME280;6591;51.446;5.404;2022-07-05T11:25:46;101940.63;;;33.32;26.11
13050;BME280;6591;51.446;5.404;2022-07-05T11:28:19;101936.88;;;33.10;26.42
13050;BME280;6591;51.446;5.404;2022-07-05T11:30:55;101935.75;;;32.90;26.18
13050;BME280;6591;51.446;5.404;2022-07-05T11:33:41;101934.44;;;32.63;25.96
13050;BME280;6591;51.446;5.404;2022-07-05T11:36:25;101936.19;;;32.42;26.68
13050;BME280;6591;51.446;5.404;2022-07-05T11:39:18;101940.50;;;32.21;26.32
13050;BME280;6591;51.446;5.404;2022-07-05T11:41:48;101930.41;;;32.14;26.71
13050;BME280;6591;51.446;5.404;2022-07-05T11:44:16;101930.31;;;31.99;27.41
13050;BME280;6591;51.446;5.404;2022-07-05T11:46:44;101935.19;;;31.89;27.37
13050;BME280;6591;51.446;5.404;2022-07-05T11:49:24;101933.38;;;31.81;27.04
13050;BME280;6591;51.446;5.404;2022-07-05T11:51:57;101930.00;;;31.71;27.07
13050;BME280;6591;51.446;5.404;2022-07-05T11:54:30;101928.69;;;31.59;26.30
13050;BME280;6591;51.446;5.404;2022-07-05T11:56:59;101922.88;;;31.46;26.20
13050;BME280;6591;51.446;5.404;2022-07-05T11:59:28;101929.31;;;31.30;26.03
13050;BME280;6591;51.446;5.404;2022-07-05T12:01:55;101922.19;;;31.13;25.99
13050;BME280;6591;51.446;5.404;2022-07-05T12:04:30;101924.78;;;30.98;26.42
13050;BME280;6591;51.446;5.404;2022-07-05T12:07:00;101941.25;;;30.90;26.68
13050;BME280;6591;51.446;5.404;2022-07-05T12:09:32;101934.41;;;30.86;26.87
13050;BME280;6591;51.446;5.404;2022-07-05T12:12:23;101918.59;;;30.96;27.88
13050;BME280;6591;51.446;5.404;2022-07-05T12:15:16;101911.84;;;31.23;28.29
13050;BME280;6591;51.446;5.404;2022-07-05T12:17:46;101913.94;;;31.60;27.87
13050;BME280;6591;51.446;5.404;2022-07-05T12:20:21;101916.53;;;32.07;27.85
13050;BME280;6591;51.446;5.404;2022-07-05T12:22:50;101905.00;;;32.49;27.14
13050;BME280;6591;51.446;5.404;2022-07-05T12:25:20;101908.41;;;32.74;27.11
13050;BME280;6591;51.446;5.404;2022-07-05T12:27:50;101916.19;;;32.85;26.64
13050;BME280;6591;51.446;5.404;2022-07-05T12:30:18;101925.03;;;32.81;26.38
13050;BME280;6591;51.446;5.404;2022-07-05T12:35:46;101917.63;;;32.21;26.38
13050;BME280;6591;51.446;5.404;2022-07-05T12:38:15;101915.66;;;32.07;26.40
13050;BME280;6591;51.446;5.404;2022-07-05T12:40:49;101921.75;;;31.94;27.20
13050;BME280;6591;51.446;5.404;2022-07-05T12:43:24;101924.59;;;31.86;26.63
13050;BME280;6591;51.446;5.404;2022-07-05T12:46:08;101910.94;;;31.70;26.71
13050;BME280;6591;51.446;5.404;2022-07-05T12:48:37;101908.75;;;31.65;26.71
13050;BME280;6591;51.446;5.404;2022-07-05T12:51:08;101915.66;;;31.61;27.28
13050;BME280;6591;51.446;5.404;2022-07-05T12:53:48;101913.38;;;31.56;27.05
13050;BME280;6591;51.446;5.404;2022-07-05T12:56:34;101921.63;;;31.65;27.11
13050;BME280;6591;51.446;5.404;2022-07-05T12:59:56;101911.50;;;31.65;26.95
13050;BME280;6591;51.446;5.404;2022-07-05T13:02:38;101914.91;;;31.67;26.95
13050;BME280;6591;51.446;5.404;2022-07-05T13:05:20;101915.09;;;31.66;27.29
13050;BME280;6591;51.446;5.404;2022-07-05T13:07:50;101910.72;;;31.79;26.77
13050;BME280;6591;51.446;5.404;2022-07-05T13:10:25;101911.50;;;31.88;27.39
13050;BME280;6591;51.446;5.404;2022-07-05T13:12:52;101918.41;;;32.07;26.85
13050;BME280;6591;51.446;5.404;2022-07-05T13:15:20;101921.53;;;32.26;27.07
13050;BME280;6591;51.446;5.404;2022-07-05T13:17:47;101925.66;;;32.45;26.82
13050;BME280;6591;51.446;5.404;2022-07-05T13:20:16;101911.84;;;32.53;26.02
13050;BME280;6591;51.446;5.404;2022-07-05T13:22:46;101914.72;;;32.60;26.25
13050;BME280;6591;51.446;5.404;2022-07-05T13:25:14;101925.19;;;32.64;25.67
13050;BME280;6591;51.446;5.404;2022-07-05T13:27:41;101931.44;;;32.73;26.05
13050;BME280;6591;51.446;5.404;2022-07-05T13:30:09;101931.66;;;32.86;25.72
13050;BME280;6591;51.446;5.404;2022-07-05T13:32:36;101931.66;;;33.01;25.69
13050;BME280;6591;51.446;5.404;2022-07-05T13:35:04;101929.69;;;33.24;25.71
13050;BME280;6591;51.446;5.404;2022-07-05T13:37:31;101939.09;;;33.44;25.67
13050;BME280;6591;51.446;5.404;2022-07-05T13:40:02;101927.81;;;33.60;25.27